createdAt,value
2022-08-25T00:01:30.961Z,101734.66
2022-08-25T00:11:54.693Z,101743.88
2022-08-25T00:22:16.509Z,101740.03
2022-08-25T00:32:38.075Z,101727.88
2022-08-25T00:43:00.573Z,101732.44
2022-08-25T00:53:22.153Z,101735.38
2022-08-25T01:03:43.697Z,101737.56
2022-08-25T01:14:07.090Z,101738.13
2022-08-25T01:24:50.792Z,101735.81
2022-08-25T01:35:12.354Z,101734.13
2022-08-25T01:45:35.590Z,101748.19
2022-08-25T01:56:05.385Z,101753.53
2022-08-25T02:06:34.126Z,101745.47
2022-08-25T02:16:56.864Z,101740.25
2022-08-25T02:27:19.211Z,101736.44
2022-08-25T02:37:41.114Z,101739.97
2022-08-25T02:48:03.202Z,101738.59
2022-08-25T02:58:28.724Z,101741.94
2022-08-25T03:08:51.162Z,101737.66
2022-08-25T03:19:12.683Z,101729.00
2022-08-25T03:29:34.390Z,101728.41
2022-08-25T03:39:56.087Z,101719.91
2022-08-25T03:50:19.907Z,101719.09
2022-08-25T04:00:42.241Z,101725.78
2022-08-25T04:11:13.329Z,101710.44
2022-08-25T04:21:36.294Z,101719.31
2022-08-25T04:31:57.936Z,101707.03
2022-08-25T04:42:19.750Z,101700.13
2022-08-25T04:52:41.275Z,101695.09
2022-08-25T05:03:03.706Z,101707.31
2022-08-25T05:13:26.293Z,101696.44
2022-08-25T05:23:49.095Z,101695.22
2022-08-25T05:34:12.184Z,101690.91
2022-08-25T05:44:34.046Z,101688.84
2022-08-25T05:54:55.977Z,101684.09
2022-08-25T06:05:23.091Z,101695.09
2022-08-25T06:15:44.683Z,101689.19
2022-08-25T06:26:13.081Z,101684.75
2022-08-25T06:36:42.616Z,101685.25
2022-08-25T06:47:04.686Z,101688.06
2022-08-25T06:57:26.527Z,101680.53
2022-08-25T07:07:48.049Z,101684.66
2022-08-25T07:18:11.588Z,101671.53
2022-08-25T07:28:33.166Z,101672.72
2022-08-25T07:38:56.963Z,101676.13
2022-08-25T07:49:23.231Z,101685.00
2022-08-25T07:59:45.155Z,101689.44
2022-08-25T08:10:33.291Z,101683.88
2022-08-25T08:20:50.776Z,101686.34
2022-08-25T08:31:12.544Z,101680.81
2022-08-25T08:42:12.615Z,101666.69
2022-08-25T08:53:07.220Z,101666.59
2022-08-25T09:03:40.465Z,101655.25
2022-08-25T09:14:41.505Z,101645.16
2022-08-25T09:25:22.067Z,101647.47
2022-08-25T09:35:53.852Z,101646.59
2022-08-25T09:46:27.111Z,101633.66
2022-08-25T09:57:01.951Z,101611.84
2022-08-25T10:07:39.795Z,101584.97
2022-08-25T10:18:29.590Z,101575.19
2022-08-25T10:29:12.151Z,101565.28
2022-08-25T10:39:44.011Z,101551.84
2022-08-25T10:50:23.611Z,101529.59
2022-08-25T11:00:59.465Z,101522.31
2022-08-25T11:11:37.585Z,101500.97
2022-08-25T11:22:04.190Z,101494.47
2022-08-25T11:32:26.525Z,101481.66
2022-08-25T11:43:08.244Z,101466.69
2022-08-25T11:53:42.356Z,101463.22
2022-08-25T12:04:16.413Z,101463.50
2022-08-25T12:14:43.545Z,101452.50
2022-08-25T12:25:14.003Z,101444.22
2022-08-25T12:35:49.695Z,101426.41
2022-08-25T12:46:23.855Z,101426.78
2022-08-25T12:56:52.879Z,101411.66
2022-08-25T13:07:51.685Z,101407.78
2022-08-25T13:18:23.920Z,101403.66
2022-08-25T13:28:54.394Z,101390.19
2022-08-25T13:39:20.022Z,101378.31
2022-08-25T13:50:26.433Z,101367.69
2022-08-25T14:01:19.698Z,101355.50
2022-08-25T14:11:58.245Z,101345.34
2022-08-25T14:22:19.874Z,101339.97
2022-08-25T14:32:43.971Z,101330.63
2022-08-25T14:43:09.585Z,101318.00
2022-08-25T14:53:32.472Z,101305.19
2022-08-25T15:04:00.773Z,101301.47
2022-08-25T15:14:29.196Z,101291.28
2022-08-25T15:24:54.940Z,101287.00
2022-08-25T15:35:16.881Z,101270.53
2022-08-25T15:45:38.567Z,101264.06
2022-08-25T15:56:00.570Z,101262.25
2022-08-25T16:06:26.805Z,101259.19
2022-08-25T16:16:48.338Z,101254.59
2022-08-25T16:27:11.997Z,101235.91
2022-08-25T16:37:35.399Z,101228.66
2022-08-25T16:47:56.904Z,101233.41
2022-08-25T16:58:18.462Z,101221.06
2022-08-25T17:08:41.151Z,101221.34
2022-08-25T17:19:06.899Z,101223.84
2022-08-25T17:29:28.643Z,101224.88
2022-08-25T17:39:50.625Z,101223.44
2022-08-25T17:50:25.104Z,101217.44
2022-08-25T18:00:47.121Z,101224.56
2022-08-25T18:11:09.763Z,101240.09
2022-08-25T18:21:31.769Z,101243.19
2022-08-25T18:31:57.161Z,101241.28
2022-08-25T18:42:21.718Z,101253.69
2022-08-25T18:52:43.250Z,101259.22
2022-08-25T19:03:05.447Z,101261.97
2022-08-25T19:13:27.044Z,101267.47
2022-08-25T19:23:48.707Z,101262.78
2022-08-25T19:34:14.993Z,101268.72
2022-08-25T19:44:37.750Z,101269.09
2022-08-25T19:54:59.956Z,101263.66
2022-08-25T20:05:24.196Z,101269.69
2022-08-25T20:15:46.218Z,101270.25
2022-08-25T20:26:09.041Z,101262.88
2022-08-25T20:36:31.414Z,101267.63
2022-08-25T20:46:54.655Z,101265.53
2022-08-25T20:57:25.887Z,101268.81
2022-08-25T21:07:48.370Z,101264.88
2022-08-25T21:18:10.589Z,101265.13
2022-08-25T21:28:33.844Z,101260.75
2022-08-25T21:38:58.576Z,101267.28
2022-08-25T21:49:23.132Z,101260.78
2022-08-25T21:59:45.131Z,101261.19
2022-08-25T22:10:09.394Z,101245.94
2022-08-25T22:20:39.239Z,101238.66
2022-08-25T22:31:06.726Z,101228.72
2022-08-25T22:41:31.559Z,101217.75
2022-08-25T22:51:55.388Z,101216.50
2022-08-25T23:02:17.703Z,101227.50
2022-08-25T23:12:41.456Z,101215.25
2022-08-25T23:33:29.364Z,101206.66
2022-08-25T23:43:52.559Z,101200.84
2022-08-25T23:54:14.697Z,101200.75
